sensor_id;sensor_type;location;lat;lon;timestamp;P1;durP1;ratioP1;P2;durP2;ratioP2
48040;SDS011;33815;48.386;11.738;2023-01-28T00:00:30;26.40;;;14.38;;
48040;SDS011;33815;48.386;11.738;2023-01-28T00:02:55;23.50;;;11.73;;
48040;SDS011;33815;48.386;11.738;2023-01-28T00:05:21;27.77;;;14.45;;
48040;SDS011;33815;48.386;11.738;2023-01-28T00:07:48;23.65;;;12.65;;
48040;SDS011;33815;48.386;11.738;2023-01-28T00:10:14;25.20;;;12.65;;
48040;SDS011;33815;48.386;11.738;2023-01-28T00:12:39;26.38;;;13.98;;
48040;SDS011;33815;48.386;11.738;2023-01-28T00:15:05;25.27;;;12.98;;
48040;SDS011;33815;48.386;11.738;2023-01-28T00:17:31;26.10;;;13.18;;
48040;SDS011;33815;48.386;11.738;2023-01-28T00:19:56;24.50;;;14.65;;
48040;SDS011;33815;48.386;11.738;2023-01-28T00:22:21;25.17;;;13.77;;
48040;SDS011;33815;48.386;11.738;2023-01-28T00:24:46;23.10;;;13.65;;
48040;SDS011;33815;48.386;11.738;2023-01-28T00:27:12;22.70;;;12.32;;
48040;SDS011;33815;48.386;11.738;2023-01-28T00:29:37;25.58;;;14.43;;
48040;SDS011;33815;48.386;11.738;2023-01-28T00:32:02;24.70;;;12.23;;
48040;SDS011;33815;48.386;11.738;2023-01-28T00:34:28;24.00;;;12.88;;
48040;SDS011;33815;48.386;11.738;2023-01-28T00:36:53;28.85;;;13.48;;
48040;SDS011;33815;48.386;11.738;2023-01-28T00:39:21;24.23;;;13.57;;
48040;SDS011;33815;48.386;11.738;2023-01-28T00:41:50;24.75;;;13.70;;
48040;SDS011;33815;48.386;11.738;2023-01-28T00:44:17;22.77;;;12.50;;
48040;SDS011;33815;48.386;11.738;2023-01-28T00:46:42;27.15;;;13.48;;
48040;SDS011;33815;48.386;11.738;2023-01-28T00:49:08;26.75;;;13.57;;
48040;SDS011;33815;48.386;11.738;2023-01-28T00:51:34;27.08;;;12.68;;
48040;SDS011;33815;48.386;11.738;2023-01-28T00:53:59;23.60;;;13.02;;
48040;SDS011;33815;48.386;11.738;2023-01-28T00:56:26;25.63;;;13.63;;
48040;SDS011;33815;48.386;11.738;2023-01-28T00:58:51;23.80;;;13.30;;
48040;SDS011;33815;48.386;11.738;2023-01-28T01:01:18;24.75;;;13.73;;
48040;SDS011;33815;48.386;11.738;2023-01-28T01:03:48;24.13;;;13.27;;
48040;SDS011;33815;48.386;11.738;2023-01-28T01:06:26;22.35;;;12.43;;
48040;SDS011;33815;48.386;11.738;2023-01-28T01:08:52;23.77;;;13.52;;
48040;SDS011;33815;48.386;11.738;2023-01-28T01:11:17;24.05;;;12.93;;
48040;SDS011;33815;48.386;11.738;2023-01-28T01:13:43;23.65;;;12.82;;
48040;SDS011;33815;48.386;11.738;2023-01-28T01:16:09;25.33;;;13.13;;
48040;SDS011;33815;48.386;11.738;2023-01-28T01:18:39;27.27;;;12.98;;
48040;SDS011;33815;48.386;11.738;2023-01-28T01:21:09;24.80;;;12.40;;
48040;SDS011;33815;48.386;11.738;2023-01-28T01:23:36;23.60;;;12.23;;
48040;SDS011;33815;48.386;11.738;2023-01-28T01:26:02;24.83;;;12.27;;
48040;SDS011;33815;48.386;11.738;2023-01-28T01:28:29;19.50;;;12.10;;
48040;SDS011;33815;48.386;11.738;2023-01-28T01:30:58;24.05;;;12.85;;
48040;SDS011;33815;48.386;11.738;2023-01-28T01:33:27;24.10;;;13.27;;
48040;SDS011;33815;48.386;11.738;2023-01-28T01:35:54;23.65;;;13.98;;
48040;SDS011;33815;48.386;11.738;2023-01-28T01:38:19;24.25;;;12.93;;
48040;SDS011;33815;48.386;11.738;2023-01-28T01:40:45;23.90;;;12.38;;
48040;SDS011;33815;48.386;11.738;2023-01-28T01:43:20;23.90;;;12.05;;
48040;SDS011;33815;48.386;11.738;2023-01-28T01:45:47;26.00;;;13.10;;
48040;SDS011;33815;48.386;11.738;2023-01-28T01:48:18;25.00;;;12.40;;
48040;SDS011;33815;48.386;11.738;2023-01-28T01:50:54;24.13;;;12.88;;
48040;SDS011;33815;48.386;11.738;2023-01-28T01:53:23;24.70;;;11.38;;
48040;SDS011;33815;48.386;11.738;2023-01-28T01:55:50;22.08;;;12.90;;
48040;SDS011;33815;48.386;11.738;2023-01-28T01:58:20;24.00;;;13.40;;
48040;SDS011;33815;48.386;11.738;2023-01-28T02:00:50;23.92;;;12.75;;
48040;SDS011;33815;48.386;11.738;2023-01-28T02:03:15;27.95;;;13.93;;
48040;SDS011;33815;48.386;11.738;2023-01-28T02:05:48;25.67;;;12.40;;
48040;SDS011;33815;48.386;11.738;2023-01-28T02:08:14;23.40;;;11.20;;
48040;SDS011;33815;48.386;11.738;2023-01-28T02:10:47;25.33;;;12.20;;
48040;SDS011;33815;48.386;11.738;2023-01-28T02:13:14;26.27;;;12.88;;
48040;SDS011;33815;48.386;11.738;2023-01-28T02:15:42;24.15;;;12.82;;
48040;SDS011;33815;48.386;11.738;2023-01-28T02:18:10;23.27;;;13.15;;
48040;SDS011;33815;48.386;11.738;2023-01-28T02:29:21;25.75;;;12.82;;
48040;SDS011;33815;48.386;11.738;2023-01-28T02:31:51;21.13;;;12.45;;
48040;SDS011;33815;48.386;11.738;2023-01-28T02:34:36;24.27;;;12.48;;
48040;SDS011;33815;48.386;11.738;2023-01-28T02:39:44;25.15;;;11.52;;
48040;SDS011;33815;48.386;11.738;2023-01-28T02:42:18;24.70;;;13.23;;
48040;SDS011;33815;48.386;11.738;2023-01-28T02:44:48;21.52;;;12.32;;
48040;SDS011;33815;48.386;11.738;2023-01-28T02:47:14;19.77;;;12.07;;
48040;SDS011;33815;48.386;11.738;2023-01-28T02:49:58;24.48;;;11.38;;
48040;SDS011;33815;48.386;11.738;2023-01-28T02:52:45;20.35;;;11.10;;
48040;SDS011;33815;48.386;11.738;2023-01-28T02:55:44;24.90;;;12.02;;
48040;SDS011;33815;48.386;11.738;2023-01-28T03:03:58;25.05;;;12.55;;
48040;SDS011;33815;48.386;11.738;2023-01-28T03:06:32;22.40;;;12.27;;
48040;SDS011;33815;48.386;11.738;2023-01-28T03:09:04;18.52;;;11.05;;
48040;SDS011;33815;48.386;11.738;2023-01-28T03:11:47;19.92;;;9.90;;
48040;SDS011;33815;48.386;11.738;2023-01-28T03:14:35;22.08;;;11.02;;
48040;SDS011;33815;48.386;11.738;2023-01-28T03:20:19;18.67;;;9.95;;
48040;SDS011;33815;48.386;11.738;2023-01-28T03:23:07;23.05;;;11.20;;
48040;SDS011;33815;48.386;11.738;2023-01-28T03:25:55;19.60;;;11.18;;
48040;SDS011;33815;48.386;11.738;2023-01-28T03:28:43;22.13;;;11.15;;
48040;SDS011;33815;48.386;11.738;2023-01-28T03:31:29;23.58;;;11.75;;
48040;SDS011;33815;48.386;11.738;2023-01-28T03:34:14;24.27;;;11.23;;
48040;SDS011;33815;48.386;11.738;2023-01-28T03:36:57;22.50;;;11.55;;
48040;SDS011;33815;48.386;11.738;2023-01-28T03:39:25;24.20;;;11.43;;
48040;SDS011;33815;48.386;11.738;2023-01-28T03:44:22;26.88;;;12.18;;
48040;SDS011;33815;48.386;11.738;2023-01-28T03:47:07;23.13;;;12.00;;
48040;SDS011;33815;48.386;11.738;2023-01-28T03:49:35;23.23;;;12.30;;
48040;SDS011;33815;48.386;11.738;2023-01-28T03:52:01;24.30;;;12.43;;
48040;SDS011;33815;48.386;11.738;2023-01-28T03:54:27;22.98;;;12.52;;
48040;SDS011;33815;48.386;11.738;2023-01-28T03:56:52;21.85;;;12.32;;
48040;SDS011;33815;48.386;11.738;2023-01-28T03:59:17;18.00;;;10.88;;
48040;SDS011;33815;48.386;11.738;2023-01-28T04:01:42;19.33;;;12.35;;
48040;SDS011;33815;48.386;11.738;2023-01-28T04:04:07;20.55;;;11.15;;
48040;SDS011;33815;48.386;11.738;2023-01-28T04:06:47;21.67;;;10.77;;
48040;SDS011;33815;48.386;11.738;2023-01-28T04:09:13;24.48;;;11.27;;
48040;SDS011;33815;48.386;11.738;2023-01-28T04:11:39;20.83;;;11.38;;
48040;SDS011;33815;48.386;11.738;2023-01-28T04:14:04;23.08;;;11.52;;
48040;SDS011;33815;48.386;11.738;2023-01-28T04:16:29;19.65;;;10.13;;
48040;SDS011;33815;48.386;11.738;2023-01-28T04:18:54;18.75;;;11.48;;
48040;SDS011;33815;48.386;11.738;2023-01-28T04:21:21;24.42;;;11.50;;
48040;SDS011;33815;48.386;11.738;2023-01-28T04:23:47;21.00;;;10.95;;
48040;SDS011;33815;48.386;11.738;2023-01-28T04:26:12;20.90;;;12.40;;
48040;SDS011;33815;48.386;11.738;2023-01-28T04:28:37;21.88;;;12.88;;
48040;SDS011;33815;48.386;11.738;2023-01-28T04:31:03;22.20;;;11.40;;
48040;SDS011;33815;48.386;11.738;2023-01-28T04:33:28;23.98;;;12.27;;
48040;SDS011;33815;48.386;11.738;2023-01-28T04:35:53;22.58;;;11.15;;
48040;SDS011;33815;48.386;11.738;2023-01-28T04:38:18;19.80;;;11.90;;
48040;SDS011;33815;48.386;11.738;2023-01-28T04:40:44;21.00;;;12.70;;
48040;SDS011;33815;48.386;11.738;2023-01-28T04:43:13;23.05;;;11.90;;
48040;SDS011;33815;48.386;11.738;2023-01-28T04:45:38;20.48;;;12.00;;
48040;SDS011;33815;48.386;11.738;2023-01-28T04:48:04;19.05;;;10.55;;
48040;SDS011;33815;48.386;11.738;2023-01-28T04:50:29;24.85;;;11.30;;
48040;SDS011;33815;48.386;11.738;2023-01-28T04:52:54;23.40;;;10.82;;
48040;SDS011;33815;48.386;11.738;2023-01-28T04:55:20;19.92;;;11.70;;
48040;SDS011;33815;48.386;11.738;2023-01-28T04:57:45;18.08;;;11.20;;
48040;SDS011;33815;48.386;11.738;2023-01-28T05:00:12;18.90;;;11.20;;
48040;SDS011;33815;48.386;11.738;2023-01-28T05:02:38;21.02;;;11.13;;
48040;SDS011;33815;48.386;11.738;2023-01-28T05:05:03;23.45;;;12.02;;
48040;SDS011;33815;48.386;11.738;2023-01-28T05:07:32;19.02;;;11.00;;
48040;SDS011;33815;48.386;11.738;2023-01-28T05:09:58;25.65;;;11.13;;
48040;SDS011;33815;48.386;11.738;2023-01-28T05:12:23;21.95;;;11.68;;
48040;SDS011;33815;48.386;11.738;2023-01-28T05:14:48;18.75;;;10.98;;
48040;SDS011;33815;48.386;11.738;2023-01-28T05:17:14;18.52;;;10.38;;
48040;SDS011;33815;48.386;11.738;2023-01-28T05:19:39;23.00;;;11.40;;
48040;SDS011;33815;48.386;11.738;2023-01-28T05:22:04;22.42;;;11.38;;
48040;SDS011;33815;48.386;11.738;2023-01-28T05:24:29;20.45;;;11.13;;
48040;SDS011;33815;48.386;11.738;2023-01-28T05:26:55;21.73;;;11.93;;
48040;SDS011;33815;48.386;11.738;2023-01-28T05:29:20;20.27;;;11.63;;
48040;SDS011;33815;48.386;11.738;2023-01-28T05:31:46;19.98;;;10.88;;
48040;SDS011;33815;48.386;11.738;2023-01-28T05:34:11;18.67;;;10.05;;
48040;SDS011;33815;48.386;11.738;2023-01-28T05:36:37;22.17;;;11.52;;
48040;SDS011;33815;48.386;11.738;2023-01-28T05:39:02;24.88;;;11.38;;
48040;SDS011;33815;48.386;11.738;2023-01-28T05:41:27;20.38;;;10.18;;
48040;SDS011;33815;48.386;11.738;2023-01-28T05:43:53;21.23;;;10.80;;
48040;SDS011;33815;48.386;11.738;2023-01-28T05:46:18;19.35;;;11.35;;
48040;SDS011;33815;48.386;11.738;2023-01-28T05:48:43;22.90;;;12.18;;
48040;SDS011;33815;48.386;11.738;2023-01-28T05:51:09;18.88;;;9.75;;
48040;SDS011;33815;48.386;11.738;2023-01-28T05:53:35;24.08;;;11.55;;
48040;SDS011;33815;48.386;11.738;2023-01-28T05:56:00;22.20;;;11.95;;
48040;SDS011;33815;48.386;11.738;2023-01-28T05:58:25;17.25;;;9.70;;
48040;SDS011;33815;48.386;11.738;2023-01-28T06:00:54;18.05;;;9.75;;
48040;SDS011;33815;48.386;11.738;2023-01-28T06:03:20;22.42;;;9.88;;
48040;SDS011;33815;48.386;11.738;2023-01-28T06:05:46;20.33;;;11.38;;
48040;SDS011;33815;48.386;11.738;2023-01-28T06:08:12;19.35;;;10.75;;
48040;SDS011;33815;48.386;11.738;2023-01-28T06:10:37;19.75;;;9.80;;
48040;SDS011;33815;48.386;11.738;2023-01-28T06:13:02;20.55;;;10.35;;
48040;SDS011;33815;48.386;11.738;2023-01-28T06:15:27;17.70;;;10.52;;
48040;SDS011;33815;48.386;11.738;2023-01-28T06:17:53;21.95;;;10.13;;
48040;SDS011;33815;48.386;11.738;2023-01-28T06:20:18;17.67;;;10.05;;
48040;SDS011;33815;48.386;11.738;2023-01-28T06:22:43;16.83;;;9.90;;
48040;SDS011;33815;48.386;11.738;2023-01-28T06:25:09;19.75;;;10.02;;
48040;SDS011;33815;48.386;11.738;2023-01-28T06:27:34;18.05;;;9.80;;
48040;SDS011;33815;48.386;11.738;2023-01-28T06:29:59;21.02;;;11.10;;
48040;SDS011;33815;48.386;11.738;2023-01-28T06:32:25;19.65;;;10.77;;
48040;SDS011;33815;48.386;11.738;2023-01-28T06:34:51;25.35;;;11.82;;
48040;SDS011;33815;48.386;11.738;2023-01-28T06:37:16;19.33;;;11.32;;
48040;SDS011;33815;48.386;11.738;2023-01-28T06:39:41;18.60;;;10.20;;
48040;SDS011;33815;48.386;11.738;2023-01-28T06:42:07;18.27;;;10.13;;
48040;SDS011;33815;48.386;11.738;2023-01-28T06:44:32;18.45;;;10.38;;
48040;SDS011;33815;48.386;11.738;2023-01-28T06:46:57;19.70;;;11.10;;
48040;SDS011;33815;48.386;11.738;2023-01-28T06:49:23;17.48;;;10.48;;
48040;SDS011;33815;48.386;11.738;2023-01-28T06:51:48;19.63;;;10.48;;
48040;SDS011;33815;48.386;11.738;2023-01-28T06:54:13;20.33;;;10.10;;
48040;SDS011;33815;48.386;11.738;2023-01-28T06:56:39;17.92;;;9.95;;
48040;SDS011;33815;48.386;11.738;2023-01-28T06:59:05;20.73;;;11.00;;
48040;SDS011;33815;48.386;11.738;2023-01-28T07:01:30;16.90;;;10.05;;
48040;SDS011;33815;48.386;11.738;2023-01-28T07:03:55;19.98;;;10.35;;
48040;SDS011;33815;48.386;11.738;2023-01-28T07:06:21;19.05;;;11.27;;
48040;SDS011;33815;48.386;11.738;2023-01-28T07:08:46;19.40;;;11.02;;
48040;SDS011;33815;48.386;11.738;2023-01-28T07:11:11;20.02;;;10.50;;
48040;SDS011;33815;48.386;11.738;2023-01-28T07:13:36;23.10;;;11.00;;
48040;SDS011;33815;48.386;11.738;2023-01-28T07:16:02;20.55;;;11.40;;
48040;SDS011;33815;48.386;11.738;2023-01-28T07:18:28;21.35;;;11.07;;
48040;SDS011;33815;48.386;11.738;2023-01-28T07:20:53;16.95;;;9.48;;
48040;SDS011;33815;48.386;11.738;2023-01-28T07:23:19;17.52;;;9.98;;
48040;SDS011;33815;48.386;11.738;2023-01-28T07:25:44;20.20;;;10.23;;
48040;SDS011;33815;48.386;11.738;2023-01-28T07:28:09;22.83;;;11.93;;
48040;SDS011;33815;48.386;11.738;2023-01-28T07:30:36;21.98;;;10.82;;
48040;SDS011;33815;48.386;11.738;2023-01-28T07:33:01;15.15;;;9.93;;
48040;SDS011;33815;48.386;11.738;2023-01-28T07:35:26;17.65;;;9.88;;
48040;SDS011;33815;48.386;11.738;2023-01-28T07:37:52;20.95;;;10.55;;
48040;SDS011;33815;48.386;11.738;2023-01-28T07:40:19;19.52;;;10.25;;
48040;SDS011;33815;48.386;11.738;2023-01-28T07:42:45;18.13;;;10.45;;
48040;SDS011;33815;48.386;11.738;2023-01-28T07:45:11;23.80;;;12.02;;
48040;SDS011;33815;48.386;11.738;2023-01-28T07:47:36;17.85;;;11.60;;
48040;SDS011;33815;48.386;11.738;2023-01-28T07:50:02;20.88;;;10.63;;
48040;SDS011;33815;48.386;11.738;2023-01-28T07:52:27;21.73;;;12.90;;
48040;SDS011;33815;48.386;11.738;2023-01-28T07:54:52;22.35;;;10.60;;
48040;SDS011;33815;48.386;11.738;2023-01-28T07:57:18;20.02;;;11.50;;
48040;SDS011;33815;48.386;11.738;2023-01-28T07:59:47;19.52;;;9.90;;
48040;SDS011;33815;48.386;11.738;2023-01-28T08:02:14;21.10;;;11.43;;
48040;SDS011;33815;48.386;11.738;2023-01-28T08:04:39;18.90;;;11.18;;
48040;SDS011;33815;48.386;11.738;2023-01-28T08:07:04;20.55;;;10.45;;
48040;SDS011;33815;48.386;11.738;2023-01-28T08:09:30;17.23;;;11.10;;
48040;SDS011;33815;48.386;11.738;2023-01-28T08:11:58;18.15;;;10.23;;
48040;SDS011;33815;48.386;11.738;2023-01-28T08:14:23;20.20;;;10.68;;
48040;SDS011;33815;48.386;11.738;2023-01-28T08:16:48;23.75;;;11.65;;
48040;SDS011;33815;48.386;11.738;2023-01-28T08:19:14;18.17;;;10.13;;
48040;SDS011;33815;48.386;11.738;2023-01-28T08:21:39;16.38;;;10.25;;
48040;SDS011;33815;48.386;11.738;2023-01-28T08:24:04;19.73;;;10.20;;
48040;SDS011;33815;48.386;11.738;2023-01-28T08:26:30;16.33;;;9.38;;
48040;SDS011;33815;48.386;11.738;2023-01-28T08:28:55;17.98;;;10.63;;
48040;SDS011;33815;48.386;11.738;2023-01-28T08:31:20;16.73;;;9.75;;
48040;SDS011;33815;48.386;11.738;2023-01-28T08:33:46;17.83;;;10.85;;
48040;SDS011;33815;48.386;11.738;2023-01-28T08:36:11;18.10;;;10.38;;
48040;SDS011;33815;48.386;11.738;2023-01-28T08:38:36;19.90;;;10.15;;
48040;SDS011;33815;48.386;11.738;2023-01-28T08:41:01;19.58;;;10.38;;
48040;SDS011;33815;48.386;11.738;2023-01-28T08:43:27;15.55;;;8.93;;
48040;SDS011;33815;48.386;11.738;2023-01-28T08:45:52;17.17;;;10.45;;
48040;SDS011;33815;48.386;11.738;2023-01-28T08:48:18;17.25;;;9.98;;
48040;SDS011;33815;48.386;11.738;2023-01-28T08:50:43;22.15;;;11.65;;
48040;SDS011;33815;48.386;11.738;2023-01-28T08:53:13;19.10;;;10.63;;
48040;SDS011;33815;48.386;11.738;2023-01-28T08:55:41;16.52;;;10.25;;
48040;SDS011;33815;48.386;11.738;2023-01-28T08:58:07;16.33;;;10.32;;
48040;SDS011;33815;48.386;11.738;2023-01-28T09:00:35;16.30;;;10.32;;
48040;SDS011;33815;48.386;11.738;2023-01-28T09:03:01;16.08;;;9.73;;
48040;SDS011;33815;48.386;11.738;2023-01-28T09:05:26;17.92;;;10.05;;
48040;SDS011;33815;48.386;11.738;2023-01-28T09:07:52;17.45;;;9.75;;
48040;SDS011;33815;48.386;11.738;2023-01-28T09:10:17;16.20;;;9.30;;
48040;SDS011;33815;48.386;11.738;2023-01-28T09:12:44;17.17;;;10.25;;
48040;SDS011;33815;48.386;11.738;2023-01-28T09:15:10;17.92;;;10.45;;
48040;SDS011;33815;48.386;11.738;2023-01-28T09:17:35;20.17;;;11.20;;
48040;SDS011;33815;48.386;11.738;2023-01-28T09:20:00;18.15;;;10.60;;
48040;SDS011;33815;48.386;11.738;2023-01-28T09:22:26;18.20;;;10.43;;
48040;SDS011;33815;48.386;11.738;2023-01-28T09:24:51;17.80;;;10.52;;
48040;SDS011;33815;48.386;11.738;2023-01-28T09:27:16;17.92;;;10.98;;
48040;SDS011;33815;48.386;11.738;2023-01-28T09:29:42;19.92;;;11.50;;
48040;SDS011;33815;48.386;11.738;2023-01-28T09:32:07;18.75;;;10.32;;
48040;SDS011;33815;48.386;11.738;2023-01-28T09:34:32;18.70;;;10.52;;
48040;SDS011;33815;48.386;11.738;2023-01-28T09:36:58;16.95;;;10.90;;
48040;SDS011;33815;48.386;11.738;2023-01-28T09:39:24;15.60;;;9.80;;
48040;SDS011;33815;48.386;11.738;2023-01-28T09:47:29;23.25;;;13.27;;
48040;SDS011;33815;48.386;11.738;2023-01-28T09:50:06;19.27;;;10.65;;
48040;SDS011;33815;48.386;11.738;2023-01-28T09:52:37;23.67;;;11.23;;
48040;SDS011;33815;48.386;11.738;2023-01-28T09:55:17;19.30;;;11.05;;
48040;SDS011;33815;48.386;11.738;2023-01-28T09:57:52;18.17;;;10.50;;
48040;SDS011;33815;48.386;11.738;2023-01-28T10:00:23;17.65;;;10.38;;
48040;SDS011;33815;48.386;11.738;2023-01-28T10:05:40;19.55;;;10.40;;
48040;SDS011;33815;48.386;11.738;2023-01-28T10:08:55;20.10;;;11.35;;
48040;SDS011;33815;48.386;11.738;2023-01-28T10:15:44;21.00;;;10.15;;
48040;SDS011;33815;48.386;11.738;2023-01-28T10:17:56;18.90;;;10.68;;
48040;SDS011;33815;48.386;11.738;2023-01-28T10:20:28;20.38;;;11.18;;
48040;SDS011;33815;48.386;11.738;2023-01-28T10:23:03;18.38;;;10.93;;
48040;SDS011;33815;48.386;11.738;2023-01-28T10:25:36;19.08;;;10.20;;
48040;SDS011;33815;48.386;11.738;2023-01-28T10:28:13;15.68;;;9.35;;
48040;SDS011;33815;48.386;11.738;2023-01-28T10:30:43;30.40;;;15.85;;
48040;SDS011;33815;48.386;11.738;2023-01-28T10:35:44;15.60;;;9.77;;
48040;SDS011;33815;48.386;11.738;2023-01-28T10:38:16;15.63;;;10.02;;
48040;SDS011;33815;48.386;11.738;2023-01-28T10:40:45;16.65;;;10.90;;
48040;SDS011;33815;48.386;11.738;2023-01-28T10:43:17;20.10;;;12.13;;
48040;SDS011;33815;48.386;11.738;2023-01-28T10:45:56;19.15;;;10.35;;
48040;SDS011;33815;48.386;11.738;2023-01-28T10:48:31;19.17;;;10.88;;
48040;SDS011;33815;48.386;11.738;2023-01-28T10:51:02;17.25;;;10.65;;
48040;SDS011;33815;48.386;11.738;2023-01-28T10:53:43;20.38;;;12.38;;
48040;SDS011;33815;48.386;11.738;2023-01-28T10:56:23;20.15;;;10.95;;
48040;SDS011;33815;48.386;11.738;2023-01-28T11:04:04;20.10;;;10.82;;
48040;SDS011;33815;48.386;11.738;2023-01-28T11:06:30;19.42;;;11.05;;
48040;SDS011;33815;48.386;11.738;2023-01-28T11:08:55;17.42;;;9.80;;
48040;SDS011;33815;48.386;11.738;2023-01-28T11:11:22;16.52;;;9.27;;
48040;SDS011;33815;48.386;11.738;2023-01-28T11:13:51;17.58;;;10.27;;
48040;SDS011;33815;48.386;11.738;2023-01-28T11:16:18;14.95;;;9.50;;
48040;SDS011;33815;48.386;11.738;2023-01-28T11:18:52;18.77;;;9.82;;
48040;SDS011;33815;48.386;11.738;2023-01-28T11:21:25;21.10;;;11.15;;
48040;SDS011;33815;48.386;11.738;2023-01-28T11:23:54;18.55;;;9.95;;
48040;SDS011;33815;48.386;11.738;2023-01-28T11:26:24;19.50;;;10.00;;
48040;SDS011;33815;48.386;11.738;2023-01-28T11:28:53;17.27;;;9.73;;
48040;SDS011;33815;48.386;11.738;2023-01-28T11:31:19;20.10;;;10.38;;
48040;SDS011;33815;48.386;11.738;2023-01-28T11:33:48;17.02;;;8.93;;
48040;SDS011;33815;48.386;11.738;2023-01-28T11:36:19;17.70;;;9.55;;
48040;SDS011;33815;48.386;11.738;2023-01-28T11:38:52;15.73;;;9.65;;
48040;SDS011;33815;48.386;11.738;2023-01-28T11:41:35;17.35;;;10.10;;
48040;SDS011;33815;48.386;11.738;2023-01-28T11:44:15;14.25;;;8.88;;
48040;SDS011;33815;48.386;11.738;2023-01-28T11:49:43;19.67;;;10.50;;
48040;SDS011;33815;48.386;11.738;2023-01-28T11:55:26;17.63;;;9.73;;
48040;SDS011;33815;48.386;11.738;2023-01-28T12:01:13;15.68;;;8.43;;
48040;SDS011;33815;48.386;11.738;2023-01-28T12:06:47;16.98;;;11.00;;
48040;SDS011;33815;48.386;11.738;2023-01-28T12:17:49;17.67;;;9.88;;
48040;SDS011;33815;48.386;11.738;2023-01-28T12:20:28;15.82;;;9.57;;
48040;SDS011;33815;48.386;11.738;2023-01-28T12:23:32;16.52;;;9.68;;
48040;SDS011;33815;48.386;11.738;2023-01-28T12:31:49;14.73;;;9.05;;
48040;SDS011;33815;48.386;11.738;2023-01-28T12:34:52;12.70;;;8.10;;
48040;SDS011;33815;48.386;11.738;2023-01-28T12:45:40;20.33;;;9.27;;
48040;SDS011;33815;48.386;11.738;2023-01-28T12:50:47;16.27;;;8.70;;
48040;SDS011;33815;48.386;11.738;2023-01-28T12:53:30;19.00;;;10.52;;
48040;SDS011;33815;48.386;11.738;2023-01-28T12:56:22;19.13;;;10.00;;
48040;SDS011;33815;48.386;11.738;2023-01-28T12:59:09;19.95;;;10.70;;
48040;SDS011;33815;48.386;11.738;2023-01-28T13:01:41;17.40;;;9.60;;
48040;SDS011;33815;48.386;11.738;2023-01-28T13:04:12;15.68;;;8.27;;
48040;SDS011;33815;48.386;11.738;2023-01-28T13:09:23;14.70;;;8.13;;
48040;SDS011;33815;48.386;11.738;2023-01-28T13:11:50;16.75;;;9.35;;
48040;SDS011;33815;48.386;11.738;2023-01-28T13:14:19;13.40;;;8.30;;
48040;SDS011;33815;48.386;11.738;2023-01-28T13:16:49;15.40;;;9.25;;
48040;SDS011;33815;48.386;11.738;2023-01-28T13:21:42;13.90;;;8.23;;
48040;SDS011;33815;48.386;11.738;2023-01-28T13:31:50;17.10;;;9.65;;
48040;SDS011;33815;48.386;11.738;2023-01-28T13:34:36;15.35;;;9.13;;
48040;SDS011;33815;48.386;11.738;2023-01-28T13:42:37;21.70;;;9.68;;
48040;SDS011;33815;48.386;11.738;2023-01-28T13:47:41;16.70;;;9.88;;
48040;SDS011;33815;48.386;11.738;2023-01-28T13:50:14;19.60;;;10.18;;
48040;SDS011;33815;48.386;11.738;2023-01-28T13:52:43;17.95;;;10.20;;
48040;SDS011;33815;48.386;11.738;2023-01-28T14:04:00;19.15;;;10.65;;
48040;SDS011;33815;48.386;11.738;2023-01-28T14:09:29;20.80;;;10.20;;
48040;SDS011;33815;48.386;11.738;2023-01-28T14:14:41;18.13;;;10.95;;
48040;SDS011;33815;48.386;11.738;2023-01-28T14:17:26;19.88;;;10.45;;
48040;SDS011;33815;48.386;11.738;2023-01-28T14:19:56;19.05;;;9.75;;
48040;SDS011;33815;48.386;11.738;2023-01-28T14:22:22;22.83;;;10.85;;
48040;SDS011;33815;48.386;11.738;2023-01-28T14:24:47;17.40;;;9.57;;
48040;SDS011;33815;48.386;11.738;2023-01-28T14:27:18;22.38;;;11.68;;
48040;SDS011;33815;48.386;11.738;2023-01-28T14:32:43;19.70;;;10.73;;
48040;SDS011;33815;48.386;11.738;2023-01-28T14:35:14;19.98;;;10.38;;
48040;SDS011;33815;48.386;11.738;2023-01-28T14:37:43;22.73;;;10.13;;
48040;SDS011;33815;48.386;11.738;2023-01-28T14:40:13;19.10;;;10.70;;
48040;SDS011;33815;48.386;11.738;2023-01-28T14:42:46;16.52;;;10.65;;
48040;SDS011;33815;48.386;11.738;2023-01-28T14:48:06;15.95;;;9.38;;
48040;SDS011;33815;48.386;11.738;2023-01-28T14:50:47;18.73;;;10.63;;
48040;SDS011;33815;48.386;11.738;2023-01-28T14:59:00;16.58;;;9.75;;
48040;SDS011;33815;48.386;11.738;2023-01-28T15:01:45;23.48;;;10.85;;
48040;SDS011;33815;48.386;11.738;2023-01-28T15:04:33;23.48;;;11.00;;
48040;SDS011;33815;48.386;11.738;2023-01-28T15:09:41;17.13;;;9.60;;
48040;SDS011;33815;48.386;11.738;2023-01-28T15:12:07;23.60;;;11.07;;
48040;SDS011;33815;48.386;11.738;2023-01-28T15:14:33;24.45;;;11.75;;
48040;SDS011;33815;48.386;11.738;2023-01-28T15:16:58;20.15;;;10.75;;
48040;SDS011;33815;48.386;11.738;2023-01-28T15:19:29;20.38;;;9.27;;
48040;SDS011;33815;48.386;11.738;2023-01-28T15:21:58;20.65;;;11.30;;
48040;SDS011;33815;48.386;11.738;2023-01-28T15:24:29;17.58;;;10.15;;
48040;SDS011;33815;48.386;11.738;2023-01-28T15:26:57;19.08;;;11.07;;
48040;SDS011;33815;48.386;11.738;2023-01-28T15:29:30;19.65;;;9.10;;
48040;SDS011;33815;48.386;11.738;2023-01-28T15:31:57;19.00;;;10.70;;
48040;SDS011;33815;48.386;11.738;2023-01-28T15:34:23;19.80;;;10.15;;
48040;SDS011;33815;48.386;11.738;2023-01-28T15:36:54;19.02;;;10.40;;
48040;SDS011;33815;48.386;11.738;2023-01-28T15:39:24;16.90;;;10.90;;
48040;SDS011;33815;48.386;11.738;2023-01-28T15:44:34;18.75;;;9.90;;
48040;SDS011;33815;48.386;11.738;2023-01-28T15:47:04;15.95;;;9.18;;
48040;SDS011;33815;48.386;11.738;2023-01-28T15:49:40;21.70;;;10.45;;
48040;SDS011;33815;48.386;11.738;2023-01-28T15:52:09;20.88;;;10.52;;
48040;SDS011;33815;48.386;11.738;2023-01-28T15:54:36;22.27;;;11.38;;
48040;SDS011;33815;48.386;11.738;2023-01-28T15:57:20;20.08;;;10.65;;
48040;SDS011;33815;48.386;11.738;2023-01-28T15:59:46;22.05;;;10.23;;
48040;SDS011;33815;48.386;11.738;2023-01-28T16:04:57;18.05;;;10.48;;
48040;SDS011;33815;48.386;11.738;2023-01-28T16:07:25;18.48;;;10.23;;
48040;SDS011;33815;48.386;11.738;2023-01-28T16:09:52;18.55;;;9.93;;
48040;SDS011;33815;48.386;11.738;2023-01-28T16:12:20;22.10;;;10.45;;
48040;SDS011;33815;48.386;11.738;2023-01-28T16:14:48;19.83;;;10.07;;
48040;SDS011;33815;48.386;11.738;2023-01-28T16:17:16;25.38;;;11.27;;
48040;SDS011;33815;48.386;11.738;2023-01-28T16:19:47;27.45;;;11.55;;
48040;SDS011;33815;48.386;11.738;2023-01-28T16:22:19;22.50;;;11.38;;
48040;SDS011;33815;48.386;11.738;2023-01-28T16:24:49;16.85;;;10.07;;
48040;SDS011;33815;48.386;11.738;2023-01-28T16:27:27;22.42;;;12.15;;
48040;SDS011;33815;48.386;11.738;2023-01-28T16:29:53;24.95;;;12.98;;
48040;SDS011;33815;48.386;11.738;2023-01-28T16:32:29;24.85;;;12.88;;
48040;SDS011;33815;48.386;11.738;2023-01-28T16:34:58;24.23;;;12.55;;
48040;SDS011;33815;48.386;11.738;2023-01-28T16:37:24;22.83;;;12.10;;